sensor_id;sensor_type;location;lat;lon;timestamp;P1;durP1;ratioP1;P2;durP2;ratioP2
64351;SDS011;50680;52.626;-8.668;2023-02-28T00:01:13;16.35;;;8.95;;
64351;SDS011;50680;52.626;-8.668;2023-02-28T00:03:41;14.63;;;9.73;;
64351;SDS011;50680;52.626;-8.668;2023-02-28T00:06:09;10.75;;;8.40;;
64351;SDS011;50680;52.626;-8.668;2023-02-28T00:08:36;11.07;;;8.40;;
64351;SDS011;50680;52.626;-8.668;2023-02-28T00:11:05;9.35;;;8.20;;
64351;SDS011;50680;52.626;-8.668;2023-02-28T00:13:38;10.18;;;8.23;;
64351;SDS011;50680;52.626;-8.668;2023-02-28T00:18:37;16.10;;;9.85;;
64351;SDS011;50680;52.626;-8.668;2023-02-28T00:21:04;18.20;;;10.02;;
64351;SDS011;50680;52.626;-8.668;2023-02-28T00:23:32;18.13;;;11.15;;
64351;SDS011;50680;52.626;-8.668;2023-02-28T00:25:59;13.48;;;9.00;;
64351;SDS011;50680;52.626;-8.668;2023-02-28T00:28:26;11.13;;;8.80;;
64351;SDS011;50680;52.626;-8.668;2023-02-28T00:30:53;8.88;;;7.97;;
64351;SDS011;50680;52.626;-8.668;2023-02-28T00:33:20;10.55;;;7.15;;
64351;SDS011;50680;52.626;-8.668;2023-02-28T00:35:47;8.23;;;7.35;;
64351;SDS011;50680;52.626;-8.668;2023-02-28T00:38:15;7.40;;;6.38;;
64351;SDS011;50680;52.626;-8.668;2023-02-28T00:40:42;7.63;;;6.80;;
64351;SDS011;50680;52.626;-8.668;2023-02-28T00:43:09;10.85;;;7.95;;
64351;SDS011;50680;52.626;-8.668;2023-02-28T00:45:36;12.13;;;8.63;;
64351;SDS011;50680;52.626;-8.668;2023-02-28T00:48:02;10.90;;;8.20;;
64351;SDS011;50680;52.626;-8.668;2023-02-28T00:50:30;12.27;;;8.93;;
64351;SDS011;50680;52.626;-8.668;2023-02-28T00:52:57;13.45;;;9.55;;
64351;SDS011;50680;52.626;-8.668;2023-02-28T00:55:24;10.82;;;7.78;;
64351;SDS011;50680;52.626;-8.668;2023-02-28T00:57:50;9.57;;;7.20;;
64351;SDS011;50680;52.626;-8.668;2023-02-28T01:00:17;7.68;;;6.32;;
64351;SDS011;50680;52.626;-8.668;2023-02-28T01:02:44;9.07;;;6.50;;
64351;SDS011;50680;52.626;-8.668;2023-02-28T01:05:11;8.20;;;6.43;;
64351;SDS011;50680;52.626;-8.668;2023-02-28T01:07:38;12.55;;;7.05;;
64351;SDS011;50680;52.626;-8.668;2023-02-28T01:10:05;7.53;;;6.50;;
64351;SDS011;50680;52.626;-8.668;2023-02-28T01:12:32;7.78;;;6.88;;
64351;SDS011;50680;52.626;-8.668;2023-02-28T01:14:59;8.18;;;7.38;;
64351;SDS011;50680;52.626;-8.668;2023-02-28T01:17:25;8.40;;;7.40;;
64351;SDS011;50680;52.626;-8.668;2023-02-28T01:19:53;7.70;;;7.00;;
64351;SDS011;50680;52.626;-8.668;2023-02-28T01:22:22;7.25;;;6.55;;
64351;SDS011;50680;52.626;-8.668;2023-02-28T01:24:48;8.60;;;7.80;;
64351;SDS011;50680;52.626;-8.668;2023-02-28T01:27:15;9.48;;;6.78;;
64351;SDS011;50680;52.626;-8.668;2023-02-28T01:29:42;7.22;;;6.50;;
64351;SDS011;50680;52.626;-8.668;2023-02-28T01:32:09;7.57;;;6.75;;
64351;SDS011;50680;52.626;-8.668;2023-02-28T01:34:36;6.75;;;6.15;;
64351;SDS011;50680;52.626;-8.668;2023-02-28T01:37:03;7.68;;;5.95;;
64351;SDS011;50680;52.626;-8.668;2023-02-28T01:39:30;7.88;;;6.15;;
64351;SDS011;50680;52.626;-8.668;2023-02-28T01:41:56;7.57;;;6.38;;
64351;SDS011;50680;52.626;-8.668;2023-02-28T01:47:46;8.77;;;6.70;;
64351;SDS011;50680;52.626;-8.668;2023-02-28T01:50:15;5.95;;;5.40;;
64351;SDS011;50680;52.626;-8.668;2023-02-28T01:52:46;6.25;;;5.75;;
64351;SDS011;50680;52.626;-8.668;2023-02-28T01:55:14;5.80;;;5.28;;
64351;SDS011;50680;52.626;-8.668;2023-02-28T01:57:45;5.60;;;5.20;;
64351;SDS011;50680;52.626;-8.668;2023-02-28T02:00:18;6.93;;;5.40;;
64351;SDS011;50680;52.626;-8.668;2023-02-28T02:02:48;6.35;;;4.90;;
64351;SDS011;50680;52.626;-8.668;2023-02-28T02:05:28;6.10;;;5.60;;
64351;SDS011;50680;52.626;-8.668;2023-02-28T02:08:00;6.15;;;5.55;;
64351;SDS011;50680;52.626;-8.668;2023-02-28T02:10:36;5.95;;;5.35;;
64351;SDS011;50680;52.626;-8.668;2023-02-28T02:27:20;7.15;;;5.25;;
64351;SDS011;50680;52.626;-8.668;2023-02-28T02:32:37;5.32;;;4.93;;
64351;SDS011;50680;52.626;-8.668;2023-02-28T02:35:19;6.00;;;5.43;;
64351;SDS011;50680;52.626;-8.668;2023-02-28T02:40:59;6.00;;;5.43;;
64351;SDS011;50680;52.626;-8.668;2023-02-28T02:43:46;5.65;;;5.15;;
64351;SDS011;50680;52.626;-8.668;2023-02-28T02:46:20;5.20;;;4.60;;
64351;SDS011;50680;52.626;-8.668;2023-02-28T02:48:48;5.47;;;5.05;;
64351;SDS011;50680;52.626;-8.668;2023-02-28T02:51:20;5.85;;;5.45;;
64351;SDS011;50680;52.626;-8.668;2023-02-28T02:56:28;5.50;;;5.00;;
64351;SDS011;50680;52.626;-8.668;2023-02-28T02:59:01;5.25;;;4.85;;
64351;SDS011;50680;52.626;-8.668;2023-02-28T03:01:30;5.50;;;5.15;;
64351;SDS011;50680;52.626;-8.668;2023-02-28T03:04:01;6.47;;;4.95;;
64351;SDS011;50680;52.626;-8.668;2023-02-28T03:08:57;5.75;;;4.47;;
64351;SDS011;50680;52.626;-8.668;2023-02-28T03:11:24;5.30;;;4.90;;
64351;SDS011;50680;52.626;-8.668;2023-02-28T03:14:11;4.95;;;4.60;;
64351;SDS011;50680;52.626;-8.668;2023-02-28T03:19:45;5.05;;;4.70;;
64351;SDS011;50680;52.626;-8.668;2023-02-28T03:22:35;5.10;;;4.72;;
64351;SDS011;50680;52.626;-8.668;2023-02-28T03:31:26;5.40;;;4.90;;
64351;SDS011;50680;52.626;-8.668;2023-02-28T03:33:38;5.18;;;4.68;;
64351;SDS011;50680;52.626;-8.668;2023-02-28T03:36:15;6.07;;;4.70;;
64351;SDS011;50680;52.626;-8.668;2023-02-28T03:38:56;5.30;;;4.88;;
64351;SDS011;50680;52.626;-8.668;2023-02-28T03:44:15;5.50;;;5.00;;
64351;SDS011;50680;52.626;-8.668;2023-02-28T03:46:52;5.25;;;4.75;;
64351;SDS011;50680;52.626;-8.668;2023-02-28T03:49:26;5.60;;;5.20;;
64351;SDS011;50680;52.626;-8.668;2023-02-28T03:51:58;5.15;;;4.72;;
64351;SDS011;50680;52.626;-8.668;2023-02-28T03:54:29;5.28;;;4.82;;
64351;SDS011;50680;52.626;-8.668;2023-02-28T03:57:02;5.75;;;5.15;;
64351;SDS011;50680;52.626;-8.668;2023-02-28T03:59:37;5.60;;;5.10;;
64351;SDS011;50680;52.626;-8.668;2023-02-28T04:02:09;5.00;;;4.63;;
64351;SDS011;50680;52.626;-8.668;2023-02-28T04:04:36;5.10;;;4.68;;
64351;SDS011;50680;52.626;-8.668;2023-02-28T04:07:04;5.32;;;5.00;;
64351;SDS011;50680;52.626;-8.668;2023-02-28T04:09:33;5.68;;;5.18;;
64351;SDS011;50680;52.626;-8.668;2023-02-28T04:12:00;6.15;;;5.50;;
64351;SDS011;50680;52.626;-8.668;2023-02-28T04:14:27;5.57;;;5.18;;
64351;SDS011;50680;52.626;-8.668;2023-02-28T04:16:54;5.43;;;4.93;;
64351;SDS011;50680;52.626;-8.668;2023-02-28T04:19:20;5.88;;;5.40;;
64351;SDS011;50680;52.626;-8.668;2023-02-28T04:21:48;5.82;;;5.32;;
64351;SDS011;50680;52.626;-8.668;2023-02-28T04:24:19;5.80;;;5.30;;
64351;SDS011;50680;52.626;-8.668;2023-02-28T04:26:48;7.05;;;5.68;;
64351;SDS011;50680;52.626;-8.668;2023-02-28T04:29:22;6.03;;;5.43;;
64351;SDS011;50680;52.626;-8.668;2023-02-28T04:31:50;5.88;;;5.47;;
64351;SDS011;50680;52.626;-8.668;2023-02-28T04:34:20;5.22;;;4.82;;
64351;SDS011;50680;52.626;-8.668;2023-02-28T04:36:47;8.40;;;6.00;;
64351;SDS011;50680;52.626;-8.668;2023-02-28T04:39:37;6.25;;;5.60;;
64351;SDS011;50680;52.626;-8.668;2023-02-28T04:42:05;6.68;;;6.07;;
64351;SDS011;50680;52.626;-8.668;2023-02-28T04:44:32;6.65;;;6.05;;
64351;SDS011;50680;52.626;-8.668;2023-02-28T04:46:59;6.05;;;5.63;;
64351;SDS011;50680;52.626;-8.668;2023-02-28T04:49:25;7.03;;;6.35;;
64351;SDS011;50680;52.626;-8.668;2023-02-28T04:51:52;9.30;;;6.60;;
64351;SDS011;50680;52.626;-8.668;2023-02-28T04:54:19;7.00;;;6.30;;
64351;SDS011;50680;52.626;-8.668;2023-02-28T04:56:46;6.78;;;6.18;;
64351;SDS011;50680;52.626;-8.668;2023-02-28T04:59:16;8.77;;;6.38;;
64351;SDS011;50680;52.626;-8.668;2023-02-28T05:01:47;7.38;;;6.13;;
64351;SDS011;50680;52.626;-8.668;2023-02-28T05:06:41;6.70;;;6.03;;
64351;SDS011;50680;52.626;-8.668;2023-02-28T05:09:08;10.32;;;6.53;;
64351;SDS011;50680;52.626;-8.668;2023-02-28T05:11:38;7.63;;;5.70;;
64351;SDS011;50680;52.626;-8.668;2023-02-28T05:14:07;6.45;;;5.95;;
64351;SDS011;50680;52.626;-8.668;2023-02-28T05:16:38;6.05;;;5.53;;
64351;SDS011;50680;52.626;-8.668;2023-02-28T05:19:05;8.13;;;5.90;;
64351;SDS011;50680;52.626;-8.668;2023-02-28T05:24:04;10.90;;;6.32;;
64351;SDS011;50680;52.626;-8.668;2023-02-28T05:26:35;6.88;;;5.72;;
64351;SDS011;50680;52.626;-8.668;2023-02-28T05:29:04;7.13;;;6.30;;
64351;SDS011;50680;52.626;-8.668;2023-02-28T05:31:31;6.85;;;6.25;;
64351;SDS011;50680;52.626;-8.668;2023-02-28T05:33:59;6.93;;;6.05;;
64351;SDS011;50680;52.626;-8.668;2023-02-28T05:36:26;7.15;;;6.05;;
64351;SDS011;50680;52.626;-8.668;2023-02-28T05:38:53;6.90;;;6.20;;
64351;SDS011;50680;52.626;-8.668;2023-02-28T05:41:20;8.73;;;6.68;;
64351;SDS011;50680;52.626;-8.668;2023-02-28T05:43:47;6.90;;;6.20;;
64351;SDS011;50680;52.626;-8.668;2023-02-28T05:46:14;8.50;;;6.72;;
64351;SDS011;50680;52.626;-8.668;2023-02-28T05:48:42;7.88;;;6.68;;
64351;SDS011;50680;52.626;-8.668;2023-02-28T05:51:12;7.57;;;6.43;;
64351;SDS011;50680;52.626;-8.668;2023-02-28T05:53:39;11.27;;;6.55;;
64351;SDS011;50680;52.626;-8.668;2023-02-28T05:56:06;7.25;;;6.53;;
64351;SDS011;50680;52.626;-8.668;2023-02-28T05:58:33;6.53;;;5.93;;
64351;SDS011;50680;52.626;-8.668;2023-02-28T06:01:18;7.43;;;5.90;;
64351;SDS011;50680;52.626;-8.668;2023-02-28T06:03:49;7.57;;;6.28;;
64351;SDS011;50680;52.626;-8.668;2023-02-28T06:06:16;6.97;;;6.38;;
64351;SDS011;50680;52.626;-8.668;2023-02-28T06:08:43;8.35;;;6.20;;
64351;SDS011;50680;52.626;-8.668;2023-02-28T06:11:11;6.35;;;5.85;;
64351;SDS011;50680;52.626;-8.668;2023-02-28T06:13:37;9.93;;;6.63;;
64351;SDS011;50680;52.626;-8.668;2023-02-28T06:16:04;7.85;;;6.60;;
64351;SDS011;50680;52.626;-8.668;2023-02-28T06:18:32;6.97;;;6.28;;
64351;SDS011;50680;52.626;-8.668;2023-02-28T06:20:59;7.50;;;6.55;;
64351;SDS011;50680;52.626;-8.668;2023-02-28T06:23:25;9.00;;;6.93;;
64351;SDS011;50680;52.626;-8.668;2023-02-28T06:25:52;7.13;;;6.22;;
64351;SDS011;50680;52.626;-8.668;2023-02-28T06:28:19;8.43;;;6.68;;
64351;SDS011;50680;52.626;-8.668;2023-02-28T06:30:46;7.18;;;6.47;;
64351;SDS011;50680;52.626;-8.668;2023-02-28T06:33:13;6.88;;;6.18;;
64351;SDS011;50680;52.626;-8.668;2023-02-28T06:35:42;6.85;;;6.25;;
64351;SDS011;50680;52.626;-8.668;2023-02-28T06:38:10;7.18;;;6.57;;
64351;SDS011;50680;52.626;-8.668;2023-02-28T06:40:37;9.13;;;6.25;;
64351;SDS011;50680;52.626;-8.668;2023-02-28T06:43:04;8.00;;;6.30;;
64351;SDS011;50680;52.626;-8.668;2023-02-28T06:45:31;6.70;;;5.93;;
64351;SDS011;50680;52.626;-8.668;2023-02-28T06:47:57;7.07;;;6.45;;
64351;SDS011;50680;52.626;-8.668;2023-02-28T06:50:26;7.30;;;6.55;;
64351;SDS011;50680;52.626;-8.668;2023-02-28T06:52:55;7.13;;;6.53;;
64351;SDS011;50680;52.626;-8.668;2023-02-28T06:55:22;7.30;;;6.60;;
64351;SDS011;50680;52.626;-8.668;2023-02-28T06:57:49;7.32;;;6.28;;
64351;SDS011;50680;52.626;-8.668;2023-02-28T07:00:17;6.50;;;5.97;;
64351;SDS011;50680;52.626;-8.668;2023-02-28T07:02:43;6.50;;;5.90;;
64351;SDS011;50680;52.626;-8.668;2023-02-28T07:05:10;6.28;;;5.40;;
64351;SDS011;50680;52.626;-8.668;2023-02-28T07:07:37;7.25;;;6.05;;
64351;SDS011;50680;52.626;-8.668;2023-02-28T07:10:06;8.30;;;7.40;;
64351;SDS011;50680;52.626;-8.668;2023-02-28T07:12:34;6.93;;;6.30;;
64351;SDS011;50680;52.626;-8.668;2023-02-28T07:15:03;6.53;;;5.93;;
64351;SDS011;50680;52.626;-8.668;2023-02-28T07:17:31;7.03;;;6.38;;
64351;SDS011;50680;52.626;-8.668;2023-02-28T07:19:58;6.97;;;6.38;;
64351;SDS011;50680;52.626;-8.668;2023-02-28T07:22:24;6.70;;;5.90;;
64351;SDS011;50680;52.626;-8.668;2023-02-28T07:24:51;10.07;;;7.03;;
64351;SDS011;50680;52.626;-8.668;2023-02-28T07:27:18;9.40;;;6.40;;
64351;SDS011;50680;52.626;-8.668;2023-02-28T07:32:16;9.05;;;6.53;;
64351;SDS011;50680;52.626;-8.668;2023-02-28T07:34:43;8.25;;;6.63;;
64351;SDS011;50680;52.626;-8.668;2023-02-28T07:37:10;9.05;;;6.70;;
64351;SDS011;50680;52.626;-8.668;2023-02-28T07:39:37;7.53;;;6.93;;
64351;SDS011;50680;52.626;-8.668;2023-02-28T07:42:05;8.38;;;6.15;;
64351;SDS011;50680;52.626;-8.668;2023-02-28T07:44:32;7.72;;;6.82;;
64351;SDS011;50680;52.626;-8.668;2023-02-28T07:46:59;6.85;;;6.15;;
64351;SDS011;50680;52.626;-8.668;2023-02-28T07:49:26;6.82;;;6.13;;
64351;SDS011;50680;52.626;-8.668;2023-02-28T07:51:53;6.72;;;6.03;;
64351;SDS011;50680;52.626;-8.668;2023-02-28T07:54:19;7.50;;;6.65;;
64351;SDS011;50680;52.626;-8.668;2023-02-28T07:56:46;7.43;;;6.45;;
64351;SDS011;50680;52.626;-8.668;2023-02-28T07:59:13;10.50;;;7.05;;
64351;SDS011;50680;52.626;-8.668;2023-02-28T08:01:40;7.72;;;6.32;;
64351;SDS011;50680;52.626;-8.668;2023-02-28T08:04:13;8.75;;;6.68;;
64351;SDS011;50680;52.626;-8.668;2023-02-28T08:07:07;7.82;;;7.00;;
64351;SDS011;50680;52.626;-8.668;2023-02-28T08:09:34;7.43;;;6.75;;
64351;SDS011;50680;52.626;-8.668;2023-02-28T08:12:01;7.40;;;6.68;;
64351;SDS011;50680;52.626;-8.668;2023-02-28T08:14:27;12.07;;;6.55;;
64351;SDS011;50680;52.626;-8.668;2023-02-28T08:16:54;7.55;;;6.47;;
64351;SDS011;50680;52.626;-8.668;2023-02-28T08:19:21;12.45;;;7.35;;
64351;SDS011;50680;52.626;-8.668;2023-02-28T08:21:48;13.10;;;6.30;;
64351;SDS011;50680;52.626;-8.668;2023-02-28T08:24:15;11.38;;;7.15;;
64351;SDS011;50680;52.626;-8.668;2023-02-28T08:26:42;7.53;;;6.68;;
64351;SDS011;50680;52.626;-8.668;2023-02-28T08:29:09;8.00;;;6.70;;
64351;SDS011;50680;52.626;-8.668;2023-02-28T08:31:35;7.47;;;6.57;;
64351;SDS011;50680;52.626;-8.668;2023-02-28T08:34:06;9.50;;;7.68;;
64351;SDS011;50680;52.626;-8.668;2023-02-28T08:36:33;8.07;;;6.78;;
64351;SDS011;50680;52.626;-8.668;2023-02-28T08:39:01;9.63;;;7.80;;
64351;SDS011;50680;52.626;-8.668;2023-02-28T08:41:27;11.02;;;6.97;;
64351;SDS011;50680;52.626;-8.668;2023-02-28T08:43:55;9.13;;;7.25;;
64351;SDS011;50680;52.626;-8.668;2023-02-28T08:46:22;9.15;;;8.25;;
64351;SDS011;50680;52.626;-8.668;2023-02-28T08:48:52;9.38;;;7.97;;
64351;SDS011;50680;52.626;-8.668;2023-02-28T08:51:21;9.25;;;8.00;;
64351;SDS011;50680;52.626;-8.668;2023-02-28T08:53:54;9.82;;;7.22;;
64351;SDS011;50680;52.626;-8.668;2023-02-28T08:56:27;8.65;;;7.63;;
64351;SDS011;50680;52.626;-8.668;2023-02-28T08:58:55;11.73;;;8.52;;
64351;SDS011;50680;52.626;-8.668;2023-02-28T09:01:26;10.63;;;7.88;;
64351;SDS011;50680;52.626;-8.668;2023-02-28T09:03:56;10.98;;;7.32;;
64351;SDS011;50680;52.626;-8.668;2023-02-28T09:06:24;9.77;;;7.63;;
64351;SDS011;50680;52.626;-8.668;2023-02-28T09:08:53;11.20;;;7.20;;
64351;SDS011;50680;52.626;-8.668;2023-02-28T09:11:23;8.88;;;7.82;;
64351;SDS011;50680;52.626;-8.668;2023-02-28T09:13:50;9.30;;;7.18;;
64351;SDS011;50680;52.626;-8.668;2023-02-28T09:16:17;9.55;;;7.38;;
64351;SDS011;50680;52.626;-8.668;2023-02-28T09:18:44;8.75;;;7.63;;
64351;SDS011;50680;52.626;-8.668;2023-02-28T09:21:12;10.38;;;7.18;;
64351;SDS011;50680;52.626;-8.668;2023-02-28T09:23:41;12.90;;;8.65;;
64351;SDS011;50680;52.626;-8.668;2023-02-28T09:26:19;8.95;;;7.35;;
64351;SDS011;50680;52.626;-8.668;2023-02-28T09:28:48;10.57;;;8.40;;
64351;SDS011;50680;52.626;-8.668;2023-02-28T09:31:19;8.82;;;7.93;;
64351;SDS011;50680;52.626;-8.668;2023-02-28T09:33:52;9.45;;;7.78;;
64351;SDS011;50680;52.626;-8.668;2023-02-28T09:36:21;10.45;;;8.45;;
64351;SDS011;50680;52.626;-8.668;2023-02-28T09:38:59;9.93;;;7.38;;
64351;SDS011;50680;52.626;-8.668;2023-02-28T09:41:26;12.27;;;7.82;;
64351;SDS011;50680;52.626;-8.668;2023-02-28T09:44:02;11.70;;;7.80;;
64351;SDS011;50680;52.626;-8.668;2023-02-28T09:46:35;10.93;;;7.78;;
64351;SDS011;50680;52.626;-8.668;2023-02-28T09:49:10;12.50;;;8.43;;
64351;SDS011;50680;52.626;-8.668;2023-02-28T09:51:43;8.75;;;7.78;;
64351;SDS011;50680;52.626;-8.668;2023-02-28T09:54:21;10.38;;;8.27;;
64351;SDS011;50680;52.626;-8.668;2023-02-28T09:56:59;9.88;;;8.07;;
64351;SDS011;50680;52.626;-8.668;2023-02-28T10:02:32;10.40;;;7.82;;
64351;SDS011;50680;52.626;-8.668;2023-02-28T10:07:56;12.07;;;7.85;;
64351;SDS011;50680;52.626;-8.668;2023-02-28T10:10:44;8.75;;;7.95;;
64351;SDS011;50680;52.626;-8.668;2023-02-28T10:13:17;8.68;;;7.80;;
64351;SDS011;50680;52.626;-8.668;2023-02-28T10:15:46;9.50;;;8.50;;
64351;SDS011;50680;52.626;-8.668;2023-02-28T10:18:20;10.52;;;8.65;;
64351;SDS011;50680;52.626;-8.668;2023-02-28T10:20:51;9.80;;;8.38;;
64351;SDS011;50680;52.626;-8.668;2023-02-28T10:23:21;9.98;;;8.63;;
64351;SDS011;50680;52.626;-8.668;2023-02-28T10:25:57;10.70;;;8.38;;
64351;SDS011;50680;52.626;-8.668;2023-02-28T10:28:26;10.93;;;8.50;;
64351;SDS011;50680;52.626;-8.668;2023-02-28T10:30:57;12.27;;;8.02;;
64351;SDS011;50680;52.626;-8.668;2023-02-28T10:33:28;9.13;;;8.23;;
64351;SDS011;50680;52.626;-8.668;2023-02-28T10:35:56;11.70;;;8.47;;
64351;SDS011;50680;52.626;-8.668;2023-02-28T10:38:24;8.98;;;7.90;;
64351;SDS011;50680;52.626;-8.668;2023-02-28T10:43:38;8.90;;;8.10;;
64351;SDS011;50680;52.626;-8.668;2023-02-28T10:51:04;8.48;;;7.78;;
64351;SDS011;50680;52.626;-8.668;2023-02-28T10:53:36;8.70;;;8.00;;
64351;SDS011;50680;52.626;-8.668;2023-02-28T10:56:25;8.48;;;7.65;;
64351;SDS011;50680;52.626;-8.668;2023-02-28T11:01:23;7.90;;;7.20;;
64351;SDS011;50680;52.626;-8.668;2023-02-28T11:04:00;8.05;;;7.28;;
64351;SDS011;50680;52.626;-8.668;2023-02-28T11:06:32;9.18;;;7.57;;
64351;SDS011;50680;52.626;-8.668;2023-02-28T11:11:29;7.72;;;6.90;;
64351;SDS011;50680;52.626;-8.668;2023-02-28T11:14:07;9.13;;;7.47;;
64351;SDS011;50680;52.626;-8.668;2023-02-28T11:16:46;11.13;;;8.00;;
64351;SDS011;50680;52.626;-8.668;2023-02-28T11:19:19;9.93;;;7.18;;
64351;SDS011;50680;52.626;-8.668;2023-02-28T11:22:02;8.98;;;8.02;;
64351;SDS011;50680;52.626;-8.668;2023-02-28T11:24:35;8.38;;;7.60;;
64351;SDS011;50680;52.626;-8.668;2023-02-28T11:27:23;9.27;;;8.48;;
64351;SDS011;50680;52.626;-8.668;2023-02-28T11:30:22;10.38;;;8.77;;
64351;SDS011;50680;52.626;-8.668;2023-02-28T11:32:55;9.30;;;8.30;;
64351;SDS011;50680;52.626;-8.668;2023-02-28T11:38:09;10.38;;;8.77;;
64351;SDS011;50680;52.626;-8.668;2023-02-28T11:40:43;14.90;;;8.70;;
64351;SDS011;50680;52.626;-8.668;2023-02-28T11:43:25;10.18;;;9.18;;
64351;SDS011;50680;52.626;-8.668;2023-02-28T11:46:17;9.23;;;8.20;;
64351;SDS011;50680;52.626;-8.668;2023-02-28T11:48:58;9.43;;;8.55;;
64351;SDS011;50680;52.626;-8.668;2023-02-28T12:00:27;9.93;;;8.90;;
64351;SDS011;50680;52.626;-8.668;2023-02-28T12:12:32;10.32;;;9.32;;
64351;SDS011;50680;52.626;-8.668;2023-02-28T12:18:17;10.02;;;9.05;;
64351;SDS011;50680;52.626;-8.668;2023-02-28T12:27:12;10.20;;;8.60;;
64351;SDS011;50680;52.626;-8.668;2023-02-28T12:29:46;12.50;;;9.05;;
64351;SDS011;50680;52.626;-8.668;2023-02-28T12:35:12;9.27;;;8.38;;
64351;SDS011;50680;52.626;-8.668;2023-02-28T12:40:50;14.10;;;8.98;;
64351;SDS011;50680;52.626;-8.668;2023-02-28T12:43:25;11.02;;;8.73;;
64351;SDS011;50680;52.626;-8.668;2023-02-28T12:46:00;10.73;;;9.73;;
64351;SDS011;50680;52.626;-8.668;2023-02-28T12:48:42;11.65;;;9.38;;
64351;SDS011;50680;52.626;-8.668;2023-02-28T12:51:12;8.80;;;7.72;;
64351;SDS011;50680;52.626;-8.668;2023-02-28T12:59:05;9.50;;;8.65;;
64351;SDS011;50680;52.626;-8.668;2023-02-28T13:12:51;9.43;;;8.48;;
64351;SDS011;50680;52.626;-8.668;2023-02-28T13:15:26;9.05;;;8.15;;
64351;SDS011;50680;52.626;-8.668;2023-02-28T13:17:56;13.82;;;8.65;;
64351;SDS011;50680;52.626;-8.668;2023-02-28T13:20:29;9.95;;;8.88;;
64351;SDS011;50680;52.626;-8.668;2023-02-28T13:23:01;12.15;;;8.68;;
64351;SDS011;50680;52.626;-8.668;2023-02-28T13:28:11;9.32;;;8.43;;
64351;SDS011;50680;52.626;-8.668;2023-02-28T13:33:30;11.02;;;8.88;;
64351;SDS011;50680;52.626;-8.668;2023-02-28T13:36:11;10.23;;;9.10;;
64351;SDS011;50680;52.626;-8.668;2023-02-28T13:38:52;10.10;;;9.10;;
64351;SDS011;50680;52.626;-8.668;2023-02-28T13:41:40;9.80;;;8.48;;
64351;SDS011;50680;52.626;-8.668;2023-02-28T14:02:47;12.05;;;8.60;;
64351;SDS011;50680;52.626;-8.668;2023-02-28T14:05:36;9.18;;;8.20;;
64351;SDS011;50680;52.626;-8.668;2023-02-28T14:08:11;8.82;;;7.90;;
64351;SDS011;50680;52.626;-8.668;2023-02-28T14:10:47;9.30;;;8.30;;
64351;SDS011;50680;52.626;-8.668;2023-02-28T14:16:14;9.00;;;8.15;;
64351;SDS011;50680;52.626;-8.668;2023-02-28T14:18:51;11.45;;;8.10;;
64351;SDS011;50680;52.626;-8.668;2023-02-28T14:21:25;8.82;;;8.07;;
64351;SDS011;50680;52.626;-8.668;2023-02-28T14:29:51;10.20;;;7.78;;
64351;SDS011;50680;52.626;-8.668;2023-02-28T14:32:35;9.77;;;8.82;;
64351;SDS011;50680;52.626;-8.668;2023-02-28T14:37:41;8.65;;;7.70;;
64351;SDS011;50680;52.626;-8.668;2023-02-28T14:40:13;7.72;;;6.82;;
64351;SDS011;50680;52.626;-8.668;2023-02-28T14:42:46;10.02;;;8.27;;
64351;SDS011;50680;52.626;-8.668;2023-02-28T14:45:24;9.40;;;8.50;;
64351;SDS011;50680;52.626;-8.668;2023-02-28T14:47:55;9.50;;;7.72;;
64351;SDS011;50680;52.626;-8.668;2023-02-28T14:50:26;9.43;;;8.40;;
64351;SDS011;50680;52.626;-8.668;2023-02-28T14:52:56;10.27;;;8.45;;
64351;SDS011;50680;52.626;-8.668;2023-02-28T14:55:28;12.35;;;8.40;;
64351;SDS011;50680;52.626;-8.668;2023-02-28T14:57:59;9.35;;;8.38;;
64351;SDS011;50680;52.626;-8.668;2023-02-28T15:00:30;8.52;;;7.72;;
64351;SDS011;50680;52.626;-8.668;2023-02-28T15:03:00;15.15;;;11.02;;
64351;SDS011;50680;52.626;-8.668;2023-02-28T15:05:31;11.10;;;9.70;;
64351;SDS011;50680;52.626;-8.668;2023-02-28T15:11:23;15.77;;;9.75;;
64351;SDS011;50680;52.626;-8.668;2023-02-28T15:13:40;9.90;;;8.68;;
64351;SDS011;50680;52.626;-8.668;2023-02-28T15:16:17;17.55;;;11.25;;
64351;SDS011;50680;52.626;-8.668;2023-02-28T15:21:19;14.55;;;10.05;;
64351;SDS011;50680;52.626;-8.668;2023-02-28T15:23:51;16.90;;;9.93;;
64351;SDS011;50680;52.626;-8.668;2023-02-28T15:26:32;12.18;;;9.48;;
64351;SDS011;50680;52.626;-8.668;2023-02-28T15:29:05;11.45;;;9.20;;
64351;SDS011;50680;52.626;-8.668;2023-02-28T15:31:35;11.45;;;10.20;;
64351;SDS011;50680;52.626;-8.668;2023-02-28T15:34:33;8.52;;;7.57;;
64351;SDS011;50680;52.626;-8.668;2023-02-28T15:39:58;9.02;;;7.80;;
64351;SDS011;50680;52.626;-8.668;2023-02-28T15:42:34;8.75;;;7.82;;
64351;SDS011;50680;52.626;-8.668;2023-02-28T15:45:01;9.43;;;8.40;;
64351;SDS011;50680;52.626;-8.668;2023-02-28T15:47:28;8.55;;;7.72;;
64351;SDS011;50680;52.626;-8.668;2023-02-28T15:50:00;9.20;;;7.72;;
64351;SDS011;50680;52.626;-8.668;2023-02-28T15:52:41;12.07;;;8.30;;
64351;SDS011;50680;52.626;-8.668;2023-02-28T15:55:11;12.20;;;7.82;;
64351;SDS011;50680;52.626;-8.668;2023-02-28T15:57:47;8.75;;;7.93;;
64351;SDS011;50680;52.626;-8.668;2023-02-28T16:00:19;16.30;;;7.83;;
64351;SDS011;50680;52.626;-8.668;2023-02-28T16:02:48;9.25;;;7.88;;
64351;SDS011;50680;52.626;-8.668;2023-02-28T16:07:47;10.35;;;9.30;;
64351;SDS011;50680;52.626;-8.668;2023-02-28T16:10:15;10.35;;;8.57;;
64351;SDS011;50680;52.626;-8.668;2023-02-28T16:12:42;15.23;;;7.38;;
64351;SDS011;50680;52.626;-8.668;2023-02-28T16:15:15;16.58;;;9.20;;
64351;SDS011;50680;52.626;-8.668;2023-02-28T16:17:45;16.60;;;12.57;;
64351;SDS011;50680;52.626;-8.668;2023-02-28T16:20:17;21.05;;;14.45;;
64351;SDS011;50680;52.626;-8.668;2023-02-28T16:22:46;8.07;;;7.43;;
64351;SDS011;50680;52.626;-8.668;2023-02-28T16:25:14;7.05;;;6.55;;
64351;SDS011;50680;52.626;-8.668;2023-02-28T16:27:43;7.72;;;7.05;;
64351;SDS011;50680;52.626;-8.668;2023-02-28T16:30:17;7.18;;;6.55;;
64351;SDS011;50680;52.626;-8.668;2023-02-28T16:32:47;7.95;;;6.95;;
64351;SDS011;50680;52.626;-8.668;2023-02-28T16:35:15;9.48;;;8.25;;
64351;SDS011;50680;52.626;-8.668;2023-02-28T16:37:42;9.45;;;7.18;;
64351;SDS011;50680;52.626;-8.668;2023-02-28T16:40:19;9.38;;;7.70;;
64351;SDS011;50680;52.626;-8.668;2023-02-28T16:42:51;9.15;;;6.68;;
64351;SDS011;50680;52.626;-8.668;2023-02-28T16:45:22;8.07;;;6.57;;
64351;SDS011;50680;52.626;-8.668;2023-02-28T16:47:51;10.00;;;7.00;;
64351;SDS011;50680;52.626;-8.668;2023-02-28T16:50:28;10.60;;;7.63;;
64351;SDS011;50680;52.626;-8.668;2023-02-28T16:52:56;10.88;;;7.55;;
64351;SDS011;50680;52.626;-8.668;2023-02-28T16:55:23;8.85;;;7.95;;
64351;SDS011;50680;52.626;-8.668;2023-02-28T16:57:52;8.98;;;7.75;;
64351;SDS011;50680;52.626;-8.668;2023-02-28T17:00:21;10.25;;;8.77;;
64351;SDS011;50680;52.626;-8.668;2023-02-28T17:02:49;8.93;;;7.07;;
64351;SDS011;50680;52.626;-8.668;2023-02-28T17:05:17;13.93;;;9.23;;
64351;SDS011;50680;52.626;-8.668;2023-02-28T17:07:50;9.30;;;8.40;;
64351;SDS011;50680;52.626;-8.668;2023-02-28T17:12:51;10.70;;;7.78;;
64351;SDS011;50680;52.626;-8.668;2023-02-28T17:15:20;10.20;;;8.25;;
64351;SDS011;50680;52.626;-8.668;2023-02-28T17:17:47;11.07;;;9.05;;
64351;SDS011;50680;52.626;-8.668;2023-02-28T17:20:16;14.75;;;9.85;;
64351;SDS011;50680;52.626;-8.668;2023-02-28T17:22:50;14.98;;;8.98;;
64351;SDS011;50680;52.626;-8.668;2023-02-28T17:25:17;13.98;;;8.85;;
64351;SDS011;50680;52.626;-8.668;2023-02-28T17:27:45;13.48;;;9.60;;
64351;SDS011;50680;52.626;-8.668;2023-02-28T17:30:23;12.18;;;8.95;;
64351;SDS011;50680;52.626;-8.668;2023-02-28T17:32:54;13.85;;;9.88;;
64351;SDS011;50680;52.626;-8.668;2023-02-28T17:35:22;12.90;;;8.65;;
64351;SDS011;50680;52.626;-8.668;2023-02-28T17:37:49;11.88;;;9.27;;
64351;SDS011;50680;52.626;-8.668;2023-02-28T17:40:17;17.02;;;11.60;;
64351;SDS011;50680;52.626;-8.668;2023-02-28T17:42:46;53.28;;;27.77;;